createdAt,value
2022-10-04T09:02:06.853Z,16.33
2022-10-04T09:04:56.874Z,15.80
2022-10-04T09:07:48.799Z,14.87
2022-10-04T09:10:40.280Z,13.97
2022-10-04T09:13:51.787Z,13.57
2022-10-04T09:16:45.081Z,13.83
2022-10-04T09:19:22.653Z,13.37
2022-10-04T09:21:55.488Z,13.40
2022-10-04T09:24:37.713Z,13.17
2022-10-04T09:27:43.241Z,12.80
2022-10-04T09:30:21.294Z,12.73
2022-10-04T09:33:06.511Z,13.03
2022-10-04T09:36:02.530Z,12.73
2022-10-04T09:39:25.234Z,12.67
2022-10-04T09:42:28.071Z,12.77
2022-10-04T09:45:27.518Z,12.07
2022-10-04T09:48:29.755Z,11.87
2022-10-04T09:51:25.524Z,12.00
2022-10-04T09:54:26.642Z,11.40
2022-10-04T09:57:06.737Z,11.80
2022-10-04T10:00:02.746Z,11.43
2022-10-04T10:03:11.015Z,10.83
2022-10-04T10:06:07.248Z,11.07
2022-10-04T10:08:49.068Z,11.07
2022-10-04T10:11:43.700Z,11.10
2022-10-04T10:14:29.260Z,10.97
2022-10-04T10:17:37.233Z,11.03
2022-10-04T10:20:28.263Z,10.87
2022-10-04T10:23:13.575Z,10.67
2022-10-04T10:26:13.596Z,10.80
2022-10-04T10:29:02.630Z,10.43
2022-10-04T10:31:47.662Z,10.53
2022-10-04T10:34:38.079Z,10.10
2022-10-04T10:37:17.166Z,10.20
2022-10-04T10:39:59.718Z,10.17
2022-10-04T10:42:53.862Z,9.87
2022-10-04T10:45:40.959Z,10.03
2022-10-04T10:48:24.585Z,10.30
2022-10-04T10:51:11.371Z,11.00
2022-10-04T10:54:07.912Z,10.57
2022-10-04T10:56:56.767Z,10.13
2022-10-04T10:59:38.586Z,11.25
2022-10-04T11:02:48.062Z,11.07
2022-10-04T11:05:41.362Z,10.65
2022-10-04T11:08:29.888Z,9.97
2022-10-04T11:11:03.433Z,10.15
2022-10-04T11:14:00.940Z,9.47
2022-10-04T11:16:52.276Z,10.73
2022-10-04T11:19:56.630Z,9.95
2022-10-04T11:22:47.460Z,9.65
2022-10-04T11:25:39.752Z,9.70
2022-10-04T11:28:24.247Z,10.00
2022-10-04T11:31:28.688Z,9.57
2022-10-04T11:34:16.683Z,9.43
2022-10-04T11:37:16.882Z,10.07
2022-10-04T11:40:18.919Z,9.02
2022-10-04T11:42:57.887Z,9.48
2022-10-04T11:45:43.215Z,9.15
2022-10-04T11:48:35.409Z,8.73
2022-10-04T11:51:18.411Z,9.30
2022-10-04T11:54:35.925Z,8.82
2022-10-04T11:57:17.007Z,8.70
2022-10-04T12:00:01.906Z,8.93
2022-10-04T12:02:29.032Z,9.18
2022-10-04T12:05:18.649Z,8.73
2022-10-04T12:07:45.359Z,7.90
2022-10-04T12:10:25.301Z,8.20
2022-10-04T12:13:00.983Z,8.80
2022-10-04T12:15:42.934Z,8.23
2022-10-04T12:18:54.728Z,7.80
2022-10-04T12:21:51.197Z,8.80
2022-10-04T12:24:29.226Z,8.32
2022-10-04T12:27:11.116Z,7.80
2022-10-04T12:30:15.519Z,8.38
2022-10-04T12:32:58.357Z,8.35
2022-10-04T12:35:51.982Z,8.10
2022-10-04T12:38:37.381Z,8.50
2022-10-04T12:41:21.294Z,8.80
2022-10-04T12:44:08.169Z,8.52
2022-10-04T12:46:58.170Z,8.32
2022-10-04T12:50:01.857Z,7.90
2022-10-04T12:52:43.869Z,8.55
2022-10-04T12:55:38.534Z,8.05
2022-10-04T12:58:37.016Z,8.50
2022-10-04T13:01:15.291Z,8.18
2022-10-04T13:04:21.024Z,8.18
2022-10-04T13:06:48.001Z,8.18
2022-10-04T13:09:38.895Z,8.35
2022-10-04T13:12:43.878Z,8.93
2022-10-04T13:22:06.644Z,8.52
2022-10-04T13:24:57.353Z,7.88
2022-10-04T13:27:58.755Z,8.85
2022-10-04T13:34:29.484Z,8.20
2022-10-04T13:37:04.677Z,7.82
2022-10-04T13:40:09.244Z,7.70
2022-10-04T13:43:08.508Z,8.10
2022-10-04T13:45:52.182Z,9.23
2022-10-04T13:48:57.189Z,8.07
2022-10-04T13:51:37.076Z,7.82
2022-10-04T13:54:42.998Z,8.13
2022-10-04T13:57:37.782Z,8.20
2022-10-04T14:00:06.040Z,7.93
2022-10-04T14:03:13.440Z,8.77
2022-10-04T14:05:55.551Z,8.40
2022-10-04T14:08:51.638Z,8.25
2022-10-04T14:11:53.927Z,8.30
2022-10-04T14:15:04.797Z,8.20
2022-10-04T14:18:12.899Z,8.25
2022-10-04T14:21:02.119Z,8.10
